Time;durP1;ratioP1;P1;durP2;ratioP2;P2;SDS_P1;SDS_P2;PMS_P1;PMS_P2;Temp;Humidity;BMP_temperature;BMP_pressure;BME280_temperature;BME280_humidity;BME280_pressure;Samples;Min_cycle;Max_cycle;Signal;HPM_P1;HPM_P2
2021/06/08 05:20:52;;;;;;;;;;;14.30;99.90;;;;;;6000761;23;20763;31
2021/06/08 06:49:35;;;;;;;;;;;22.00;99.90;;;;;;5038327;28;19939;-93
2021/06/08 06:52:05;;;;;;;;;;;22.20;99.90;;;;;;5019933;28;19925;-92
2021/06/08 06:54:32;;;;;;;;;;;22.20;99.90;;;;;;5019780;28;19932;-93
2021/06/08 06:56:59;;;;;;;;;;;22.50;99.90;;;;;;5020522;28;19925;-92
2021/06/08 06:59:26;;;;;;;;;;;22.60;99.90;;;;;;5020280;28;20307;-93
2021/06/08 07:01:53;;;;;;;;;;;22.50;99.90;;;;;;5020111;28;20268;-93
2021/06/08 07:04:25;;;;;;;;;;;22.50;99.90;;;;;;5023403;28;19980;-96
2021/06/08 07:06:52;;;;;;;;;;;22.60;99.90;;;;;;5021275;28;19925;-96
2021/06/08 07:09:23;;;;;;;;;;;22.80;99.90;;;;;;5030726;28;20293;-95
2021/06/08 07:11:52;;;;;;;;;;;23.40;99.90;;;;;;5051605;28;19948;-92
2021/06/08 07:35:02;;;;;;;;;;;24.00;94.40;;;;;;5020317;28;19936;-95
2021/06/08 07:37:39;;;;;;;;;;;23.50;94.40;;;;;;5001048;28;19910;-96
2021/06/08 07:43:59;;;;;;;;;;;23.10;95.00;;;;;;4923257;29;20271;-96
2021/06/08 07:49:23;;;;;;;;;;;23.20;95.80;;;;;;4997831;28;19926;-95
2021/06/08 07:51:52;;;;;;;;;;;23.10;95.30;;;;;;5000428;28;19925;-95
2021/06/08 07:54:23;;;;;;;;;;;23.00;92.80;;;;;;4999315;28;19926;-95
2021/06/08 07:56:53;;;;;;;;;;;23.10;95.10;;;;;;4997874;28;19926;-96
2021/06/08 07:59:29;;;;;;;;;;;23.10;88.30;;;;;;4998925;28;19961;-95
2021/06/08 08:07:09;;;;;;;;;;;22.90;90.60;;;;;;4979803;28;19926;-96
2021/06/08 08:09:36;;;;;;;;;;;23.00;89.90;;;;;;4960937;28;19962;-96
2021/06/08 08:12:04;;;;;;;;;;;23.00;87.80;;;;;;4960501;28;19925;-96
2021/06/08 08:14:31;;;;;;;;;;;22.90;86.10;;;;;;4961141;28;19930;-96
2021/06/08 08:17:00;;;;;;;;;;;22.90;86.30;;;;;;4960366;28;19954;-95
2021/06/08 08:19:30;;;;;;;;;;;22.80;85.90;;;;;;4960756;28;19927;-96
2021/06/08 08:21:57;;;;;;;;;;;22.80;85.50;;;;;;4960136;28;19961;-95
2021/06/08 08:24:24;;;;;;;;;;;22.50;85.70;;;;;;4960405;28;20277;-94
2021/06/08 08:26:53;;;;;;;;;;;22.50;83.40;;;;;;4960781;28;20341;-96
2021/06/08 08:29:20;;;;;;;;;;;22.60;85.10;;;;;;4960861;28;19973;-96
2021/06/08 08:31:49;;;;;;;;;;;22.70;88.30;;;;;;4960063;28;19926;-95
2021/06/08 08:34:18;;;;;;;;;;;22.60;85.20;;;;;;4962698;28;20000;-95
2021/06/08 08:36:46;;;;;;;;;;;22.80;89.10;;;;;;4977862;28;19964;-95
2021/06/08 08:39:13;;;;;;;;;;;22.70;82.80;;;;;;4961223;28;19933;-96
2021/06/08 08:41:41;;;;;;;;;;;22.60;85.30;;;;;;4960305;28;19926;-95
2021/06/08 08:44:09;;;;;;;;;;;22.70;83.60;;;;;;4962610;28;19932;-96
2021/06/08 08:46:36;;;;;;;;;;;23.10;92.50;;;;;;4962118;28;19926;-96
2021/06/08 08:49:04;;;;;;;;;;;23.40;90.20;;;;;;4960598;28;19926;-96
2021/06/08 08:51:32;;;;;;;;;;;23.60;87.90;;;;;;4963537;28;19989;-95
2021/06/08 08:54:00;;;;;;;;;;;23.40;81.80;;;;;;4971307;28;20378;-96
2021/06/08 08:56:30;;;;;;;;;;;23.20;87.50;;;;;;4972129;28;19926;-95
2021/06/08 08:59:03;;;;;;;;;;;23.30;84.40;;;;;;4979807;28;20005;-96
2021/06/08 09:01:33;;;;;;;;;;;23.30;85.60;;;;;;4968483;28;20021;-96
2021/06/08 09:04:02;;;;;;;;;;;23.00;85.90;;;;;;4960365;28;20017;-96
2021/06/08 09:06:29;;;;;;;;;;;22.70;89.60;;;;;;4959697;28;20017;-95
2021/06/08 09:08:57;;;;;;;;;;;22.50;85.90;;;;;;4963458;28;20401;-96
2021/06/08 09:11:25;;;;;;;;;;;22.20;85.90;;;;;;4979106;28;19954;-96
2021/06/08 09:13:52;;;;;;;;;;;21.90;89.50;;;;;;4963406;28;19933;-96
2021/06/08 09:16:22;;;;;;;;;;;21.50;91.80;;;;;;4963264;28;19933;-96
2021/06/08 09:18:49;;;;;;;;;;;21.30;93.30;;;;;;4963410;28;19958;-96
2021/06/08 09:21:21;;;;;;;;;;;21.20;92.10;;;;;;4974366;28;19933;-96
2021/06/08 09:23:48;;;;;;;;;;;21.00;93.40;;;;;;4985731;28;19970;-96
2021/06/08 09:26:16;;;;;;;;;;;20.70;94.40;;;;;;4968152;28;19930;-96
2021/06/08 09:32:11;;;;;;;;;;;20.30;95.10;;;;;;4979963;28;20400;-96
2021/06/08 09:34:49;;;;;;;;;;;20.20;96.70;;;;;;4963110;28;19957;-96
2021/06/08 09:37:37;;;;;;;;;;;20.00;97.90;;;;;;4963510;28;20009;-96
2021/06/08 09:40:18;;;;;;;;;;;19.80;99.40;;;;;;4960842;29;19933;-96
2021/06/08 09:42:46;;;;;;;;;;;19.70;99.20;;;;;;4962577;28;20285;-96
2021/06/08 09:45:20;;;;;;;;;;;19.50;99.60;;;;;;4962926;28;20399;-96
2021/06/08 09:47:58;;;;;;;;;;;19.40;99.90;;;;;;4963103;28;20347;-96
2021/06/08 09:50:37;;;;;;;;;;;19.40;99.90;;;;;;4963106;28;19932;-96
2021/06/08 09:53:24;;;;;;;;;;;19.30;99.90;;;;;;4962603;28;19926;-95
2021/06/08 09:55:55;;;;;;;;;;;19.10;99.90;;;;;;4962713;28;19957;-96
2021/06/08 09:58:23;;;;;;;;;;;19.20;99.90;;;;;;4964566;28;19930;-96
2021/06/08 10:01:09;;;;;;;;;;;19.10;99.90;;;;;;4963239;28;19952;-96
2021/06/08 10:03:45;;;;;;;;;;;19.10;99.90;;;;;;4962457;28;20494;-96
2021/06/08 10:06:14;;;;;;;;;;;19.10;99.90;;;;;;4962525;28;19930;-96
2021/06/08 10:08:50;;;;;;;;;;;19.20;99.90;;;;;;4962962;28;19926;-96
2021/06/08 10:11:23;;;;;;;;;;;19.10;99.90;;;;;;4963059;28;20377;-96
2021/06/08 10:13:52;;;;;;;;;;;19.10;99.90;;;;;;4954738;28;20040;-96
2021/06/08 10:16:24;;;;;;;;;;;19.10;99.90;;;;;;4963324;28;19926;-96
2021/06/08 10:18:51;;;;;;;;;;;19.10;99.90;;;;;;4963483;28;20384;-96
2021/06/08 10:21:37;;;;;;;;;;;19.00;99.90;;;;;;4963215;28;19953;-96
2021/06/08 10:24:06;;;;;;;;;;;19.00;99.90;;;;;;4962751;28;19926;-96
2021/06/08 10:26:35;;;;;;;;;;;18.90;99.90;;;;;;4963261;28;20262;-96
2021/06/08 10:29:04;;;;;;;;;;;18.90;99.90;;;;;;4963119;28;19932;-96
2021/06/08 10:31:32;;;;;;;;;;;18.80;99.90;;;;;;4963283;28;19926;-96
2021/06/08 10:34:04;;;;;;;;;;;18.90;99.90;;;;;;4963663;28;20381;-96
2021/06/08 10:36:32;;;;;;;;;;;18.80;99.90;;;;;;4962908;28;20032;-96
2021/06/08 10:39:03;;;;;;;;;;;18.80;99.90;;;;;;4968378;28;19932;-96
2021/06/08 10:41:31;;;;;;;;;;;18.80;99.90;;;;;;4972182;28;19927;-96
2021/06/08 10:44:01;;;;;;;;;;;18.90;99.90;;;;;;4978743;28;19926;-96
2021/06/08 10:46:44;;;;;;;;;;;19.00;99.90;;;;;;4974945;28;19926;-96
2021/06/08 11:15:48;;;;;;;;;;;16.80;99.90;;;;;;5060535;28;19924;-96
2021/06/08 11:18:25;;;;;;;;;;;16.20;99.90;;;;;;5041931;28;19925;-96
2021/06/08 11:20:55;;;;;;;;;;;15.90;99.90;;;;;;5039332;28;20009;-95
2021/06/08 11:23:42;;;;;;;;;;;15.40;99.90;;;;;;5021912;28;19929;-96
2021/06/08 11:26:10;;;;;;;;;;;15.30;99.90;;;;;;5020932;28;20011;-96
2021/06/08 11:28:42;;;;;;;;;;;15.10;99.90;;;;;;5020337;28;20012;-95
2021/06/08 11:31:09;;;;;;;;;;;14.90;99.90;;;;;;5020921;28;19925;-96
2021/06/08 11:33:42;;;;;;;;;;;15.00;99.90;;;;;;5021673;28;19933;-96
2021/06/08 11:36:18;;;;;;;;;;;15.10;99.90;;;;;;5021618;28;19931;-95
2021/06/08 11:38:47;;;;;;;;;;;15.20;99.90;;;;;;5021211;28;20016;-95
2021/06/08 11:48:01;;;;;;;;;;;15.40;99.90;;;;;;5036911;28;20323;-95
2021/06/08 11:50:38;;;;;;;;;;;15.10;99.90;;;;;;5020037;28;19929;-95
2021/06/08 11:53:09;;;;;;;;;;;15.00;99.90;;;;;;5019375;28;20268;-94
2021/06/08 11:55:36;;;;;;;;;;;15.00;99.90;;;;;;5019362;28;19925;-95
2021/06/08 11:58:03;;;;;;;;;;;15.10;99.90;;;;;;5019531;28;19929;-94
2021/06/08 12:00:54;;;;;;;;;;;15.40;99.90;;;;;;5019644;28;20414;-95
2021/06/08 12:03:28;;;;;;;;;;;15.70;99.90;;;;;;5019236;28;19961;-95
2021/06/08 12:05:57;;;;;;;;;;;15.80;99.90;;;;;;5018865;28;19931;-95
2021/06/08 12:08:25;;;;;;;;;;;15.80;99.90;;;;;;5020025;28;19925;-96
2021/06/08 12:10:55;;;;;;;;;;;15.80;99.90;;;;;;5019056;28;19931;-95
2021/06/08 12:13:32;;;;;;;;;;;15.80;99.90;;;;;;5019659;28;20411;-96
2021/06/08 12:16:00;;;;;;;;;;;15.90;99.90;;;;;;5019469;28;19932;-95
2021/06/08 12:18:35;;;;;;;;;;;15.90;99.90;;;;;;5019668;28;19925;-95
2021/06/08 12:21:18;;;;;;;;;;;16.00;99.90;;;;;;5037212;28;19926;-96
2021/06/08 12:23:45;;;;;;;;;;;16.10;99.90;;;;;;5019872;28;19932;-95
2021/06/08 12:26:14;;;;;;;;;;;16.20;99.90;;;;;;5024113;28;19993;-95
2021/06/08 12:28:42;;;;;;;;;;;16.30;99.90;;;;;;5031580;28;19932;-95
2021/06/08 12:31:10;;;;;;;;;;;16.70;99.90;;;;;;5032500;28;19932;-96
2021/06/08 12:33:40;;;;;;;;;;;16.70;99.90;;;;;;5029756;28;19932;-95
2021/06/08 12:36:08;;;;;;;;;;;17.00;99.90;;;;;;5022695;28;19932;-95
2021/06/08 12:38:35;;;;;;;;;;;17.00;99.90;;;;;;5019175;28;19932;-96
2021/06/08 12:41:04;;;;;;;;;;;17.10;99.90;;;;;;5020615;28;19929;-96
2021/06/08 12:43:47;;;;;;;;;;;17.20;99.90;;;;;;5023855;28;19932;-96
2021/06/08 12:46:33;;;;;;;;;;;17.40;99.90;;;;;;5024389;28;19975;-96
2021/06/08 12:49:02;;;;;;;;;;;17.50;99.90;;;;;;5019827;28;20357;-95
2021/06/08 12:51:36;;;;;;;;;;;17.70;99.90;;;;;;5025178;28;20000;-96
2021/06/08 12:54:05;;;;;;;;;;;17.90;99.90;;;;;;5025039;28;19960;-96
2021/06/08 12:56:36;;;;;;;;;;;18.30;99.90;;;;;;5039916;28;19909;-95
2021/06/08 12:59:04;;;;;;;;;;;18.70;99.90;;;;;;5045651;28;19936;-96
2021/06/08 13:01:33;;;;;;;;;;;19.10;99.90;;;;;;5024394;28;19936;-96
2021/06/08 13:07:29;;;;;;;;;;;19.70;99.90;;;;;;5040781;28;20020;-95
2021/06/08 13:10:03;;;;;;;;;;;20.00;99.90;;;;;;5022808;28;19932;-96
2021/06/08 13:12:43;;;;;;;;;;;20.10;99.90;;;;;;5023857;28;19925;-96
2021/06/08 13:15:12;;;;;;;;;;;20.20;99.90;;;;;;5024071;28;20007;-96
2021/06/08 13:17:42;;;;;;;;;;;20.40;99.90;;;;;;5024059;28;19932;-96
2021/06/08 13:20:30;;;;;;;;;;;20.60;99.90;;;;;;5024464;28;19971;-96
2021/06/08 13:23:01;;;;;;;;;;;20.80;99.90;;;;;;5024556;28;19964;-96
2021/06/08 13:25:33;;;;;;;;;;;21.00;99.90;;;;;;5023240;28;19960;-96
2021/06/08 13:28:06;;;;;;;;;;;20.90;99.90;;;;;;5023959;28;20356;-96
2021/06/08 13:33:27;;;;;;;;;;;21.20;99.90;;;;;;5003594;28;20349;-96
2021/06/08 13:39:29;;;;;;;;;;;21.30;99.90;;;;;;4944113;28;19922;-95
2021/06/08 13:41:56;;;;;;;;;;;21.20;99.90;;;;;;4925105;29;19945;-96
2021/06/08 13:44:26;;;;;;;;;;;21.30;99.90;;;;;;4926692;29;19965;-93
2021/06/08 13:47:01;;;;;;;;;;;21.20;99.90;;;;;;4924958;29;19927;-95
2021/06/08 13:49:42;;;;;;;;;;;21.40;99.90;;;;;;4910566;29;20009;-94
2021/06/08 13:52:09;;;;;;;;;;;21.50;99.90;;;;;;4926305;29;19911;-94
2021/06/08 13:54:37;;;;;;;;;;;21.70;99.90;;;;;;4923441;29;20019;-95
2021/06/08 13:57:18;;;;;;;;;;;21.90;99.90;;;;;;4924757;29;19931;-94
2021/06/08 14:02:43;;;;;;;;;;;22.40;99.90;;;;;;4939062;29;20359;-95
2021/06/08 14:05:30;;;;;;;;;;;22.70;99.90;;;;;;4923650;29;19982;-95
2021/06/08 14:07:58;;;;;;;;;;;23.10;99.90;;;;;;4926323;29;19931;-96
2021/06/08 14:10:26;;;;;;;;;;;23.90;99.90;;;;;;4931144;29;20288;-96
2021/06/08 14:13:01;;;;;;;;;;;24.40;99.90;;;;;;4933286;29;19927;-96
2021/06/08 14:15:28;;;;;;;;;;;23.80;99.90;;;;;;4957183;28;19926;-96
2021/06/08 14:17:56;;;;;;;;;;;23.00;99.90;;;;;;4984417;28;19944;-96
2021/06/08 14:20:28;;;;;;;;;;;22.50;99.90;;;;;;4983892;28;19933;-96
2021/06/08 14:22:55;;;;;;;;;;;21.60;99.90;;;;;;4998623;28;19960;-94
2021/06/08 14:25:22;;;;;;;;;;;21.10;99.90;;;;;;4983933;28;20008;-94
2021/06/08 14:27:49;;;;;;;;;;;20.60;99.90;;;;;;4984635;28;19934;-96
2021/06/08 14:30:22;;;;;;;;;;;19.80;99.90;;;;;;4983761;28;19936;-96
2021/06/08 14:32:49;;;;;;;;;;;19.10;99.90;;;;;;4988678;28;19926;-95
2021/06/08 14:35:20;;;;;;;;;;;18.10;99.90;;;;;;4982955;28;19929;-96
2021/06/08 14:37:47;;;;;;;;;;;17.60;99.90;;;;;;4981998;28;19930;-96
2021/06/08 14:43:45;;;;;;;;;;;16.60;99.90;;;;;;5019121;28;19908;-96
2021/06/08 14:46:12;;;;;;;;;;;16.20;99.90;;;;;;4999747;28;19933;-95
2021/06/08 14:48:40;;;;;;;;;;;16.00;99.90;;;;;;4982179;28;19926;-95
2021/06/08 14:51:07;;;;;;;;;;;15.90;99.90;;;;;;4981820;28;19936;-95
2021/06/08 14:53:35;;;;;;;;;;;15.90;99.90;;;;;;4982721;28;19954;-95
2021/06/08 14:56:02;;;;;;;;;;;15.80;99.90;;;;;;5000887;28;19933;-95
2021/06/08 14:58:29;;;;;;;;;;;15.80;99.90;;;;;;5004250;28;19910;-96
2021/06/08 15:00:56;;;;;;;;;;;15.90;99.90;;;;;;4997014;28;19932;-95
2021/06/08 15:03:23;;;;;;;;;;;15.90;99.90;;;;;;4991439;28;19925;-95
2021/06/08 15:05:52;;;;;;;;;;;16.00;99.90;;;;;;4980489;28;19925;-94
2021/06/08 15:08:19;;;;;;;;;;;16.10;99.90;;;;;;4980904;28;19965;-95
2021/06/08 15:10:46;;;;;;;;;;;16.30;99.90;;;;;;4998337;28;20004;-95
2021/06/08 15:13:14;;;;;;;;;;;16.40;99.90;;;;;;4981224;28;19926;-95
2021/06/08 15:15:42;;;;;;;;;;;16.50;99.90;;;;;;4986118;28;19949;-95
2021/06/08 15:18:09;;;;;;;;;;;16.70;99.90;;;;;;4980783;28;19933;-96
2021/06/08 15:20:46;;;;;;;;;;;17.00;99.90;;;;;;4981099;28;19932;-95
2021/06/08 15:23:13;;;;;;;;;;;17.50;99.90;;;;;;4981695;28;19930;-96
2021/06/08 15:25:43;;;;;;;;;;;17.90;99.90;;;;;;4980953;28;20009;-96
2021/06/08 15:31:54;;;;;;;;;;;18.30;99.90;;;;;;4958639;28;19966;-96
2021/06/08 15:34:31;;;;;;;;;;;18.50;99.90;;;;;;4944420;29;19957;-96
2021/06/08 15:37:21;;;;;;;;;;;18.80;99.90;;;;;;4948467;29;19926;-96
2021/06/08 15:39:57;;;;;;;;;;;18.90;99.90;;;;;;4945795;29;20397;-96
2021/06/08 15:46:09;;;;;;;;;;;20.00;99.90;;;;;;4863341;29;19987;-96
2021/06/08 15:48:37;;;;;;;;;;;20.10;99.90;;;;;;4865630;29;19932;-95
2021/06/08 15:51:07;;;;;;;;;;;19.90;99.90;;;;;;4866976;29;20011;-96
2021/06/08 15:53:49;;;;;;;;;;;19.50;99.90;;;;;;4871361;29;19928;-96
2021/06/08 15:56:25;;;;;;;;;;;19.10;99.90;;;;;;4869395;29;19935;-96
2021/06/08 16:03:40;;;;;;;;;;;;;;;;;;;;;
2021/06/08 16:07:01;;;;;;;;;;;18.20;99.90;;;;;;4823043;29;19987;-96
2021/06/08 16:13:08;;;;;;;;;;;17.80;99.90;;;;;;4771217;30;19974;-94
2021/06/08 16:15:35;;;;;;;;;;;17.80;99.90;;;;;;4770888;30;20311;-94
2021/06/08 16:18:03;;;;;;;;;;;17.80;99.90;;;;;;4771298;30;20263;-93
2021/06/08 16:20:30;;;;;;;;;;;17.80;99.90;;;;;;4823948;29;19928;-94
2021/06/08 16:26:25;;;;;;;;;;;17.70;99.90;;;;;;4841215;29;19908;-95
2021/06/08 16:28:53;;;;;;;;;;;17.60;99.90;;;;;;4842684;29;21396;-95
2021/06/08 16:31:20;;;;;;;;;;;17.70;99.90;;;;;;4865503;29;19972;-93
2021/06/08 16:33:47;;;;;;;;;;;17.60;99.90;;;;;;4855953;29;19929;-94
2021/06/08 16:36:13;;;;;;;;;;;17.60;99.90;;;;;;4843669;29;19928;-94
2021/06/08 16:38:41;;;;;;;;;;;17.50;99.90;;;;;;4843749;29;19928;-94
2021/06/08 16:41:08;;;;;;;;;;;17.40;99.90;;;;;;4847469;29;19932;-94
2021/06/08 16:43:35;;;;;;;;;;;17.30;99.90;;;;;;4865408;29;19928;-94
2021/06/08 16:46:02;;;;;;;;;;;17.00;99.90;;;;;;4890967;29;19926;-94
2021/06/08 16:48:31;;;;;;;;;;;16.80;99.90;;;;;;4921245;29;20358;-93
2021/06/08 16:56:55;;;;;;;;;;;16.00;99.90;;;;;;5000939;28;20368;-96
2021/06/08 16:59:22;;;;;;;;;;;15.70;99.90;;;;;;4967801;28;19933;-96
2021/06/08 17:01:58;;;;;;;;;;;15.60;99.90;;;;;;4983915;28;20339;-96
2021/06/08 17:04:32;;;;;;;;;;;15.50;99.90;;;;;;4981149;28;19933;-95
2021/06/08 17:07:18;;;;;;;;;;;15.30;99.90;;;;;;4981712;28;19965;-95
2021/06/08 17:09:59;;;;;;;;;;;15.20;99.90;;;;;;4982126;28;19926;-95
2021/06/08 17:16:02;;;;;;;;;;;15.00;99.90;;;;;;4997841;28;19921;-96
2021/06/08 17:18:40;;;;;;;;;;;15.00;99.90;;;;;;4982041;28;19949;-96
2021/06/08 17:21:08;;;;;;;;;;;15.00;99.90;;;;;;4981541;28;19984;-96
2021/06/08 17:23:53;;;;;;;;;;;14.90;99.90;;;;;;4986239;28;19926;-95
2021/06/08 17:26:45;;;;;;;;;;;15.00;99.90;;;;;;4969818;28;19932;-95
2021/06/08 17:29:16;;;;;;;;;;;15.00;99.90;;;;;;4984859;28;19985;-96
2021/06/08 17:31:49;;;;;;;;;;;15.10;99.90;;;;;;4985408;28;19926;-95
2021/06/08 17:38:26;;;;;;;;;;;15.40;99.90;;;;;;4915519;29;19907;-96
2021/06/08 17:41:19;;;;;;;;;;;15.50;99.90;;;;;;4893279;29;19927;-96
2021/06/08 17:43:57;;;;;;;;;;;15.60;99.90;;;;;;4889250;29;19932;-96
2021/06/08 17:46:41;;;;;;;;;;;15.40;99.90;;;;;;4888657;29;19934;-96
2021/06/08 17:49:45;;;;;;;;;;;15.30;99.90;;;;;;4888479;29;20014;-96
2021/06/08 17:52:38;;;;;;;;;;;15.20;99.90;;;;;;4903336;29;20312;-96
2021/06/08 18:02:11;;;;;;;;;;;14.90;99.90;;;;;;4981512;28;19954;-96
2021/06/08 18:04:38;;;;;;;;;;;14.80;99.90;;;;;;4966527;28;19953;-96
2021/06/08 18:07:08;;;;;;;;;;;14.70;99.90;;;;;;4970774;28;19917;-96
2021/06/08 18:09:36;;;;;;;;;;;14.80;99.90;;;;;;4966079;28;19926;-96
2021/06/08 18:15:46;;;;;;;;;;;14.80;99.90;;;;;;4987735;28;20001;-96
2021/06/08 18:18:24;;;;;;;;;;;14.70;99.90;;;;;;4969174;28;19910;-95
2021/06/08 18:20:52;;;;;;;;;;;14.70;99.90;;;;;;4961170;28;19926;-95
2021/06/08 18:23:23;;;;;;;;;;;14.70;99.90;;;;;;4965554;28;19958;-95
2021/06/08 18:25:55;;;;;;;;;;;14.70;99.90;;;;;;4991466;28;19926;-94
2021/06/08 18:28:22;;;;;;;;;;;14.70;99.90;;;;;;4985387;28;19926;-96
2021/06/08 18:30:50;;;;;;;;;;;14.70;99.90;;;;;;4985119;28;19957;-95
2021/06/08 18:33:23;;;;;;;;;;;14.60;99.90;;;;;;4980483;28;19926;-95
2021/06/08 18:35:52;;;;;;;;;;;14.60;99.90;;;;;;4983446;28;19949;-96
2021/06/08 18:38:21;;;;;;;;;;;14.50;99.90;;;;;;4991130;28;19929;-95
2021/06/08 18:40:49;;;;;;;;;;;14.60;99.90;;;;;;5004893;28;19941;-95
2021/06/08 18:43:16;;;;;;;;;;;14.50;99.90;;;;;;5004346;28;19941;-96
2021/06/08 18:45:43;;;;;;;;;;;14.50;99.90;;;;;;5000610;28;19930;-96
2021/06/08 18:48:13;;;;;;;;;;;14.50;99.90;;;;;;4987177;28;19932;-95
2021/06/08 18:50:41;;;;;;;;;;;14.50;99.90;;;;;;5000409;28;20017;-96
2021/06/08 18:53:08;;;;;;;;;;;14.40;99.90;;;;;;4983587;28;19953;-95
2021/06/08 18:55:36;;;;;;;;;;;14.40;99.90;;;;;;4983363;28;19965;-94
2021/06/08 18:58:07;;;;;;;;;;;14.40;99.90;;;;;;4983529;28;19941;-94
2021/06/08 19:00:34;;;;;;;;;;;14.40;99.90;;;;;;4983758;28;19926;-94
2021/06/08 19:03:02;;;;;;;;;;;14.50;99.90;;;;;;4984116;28;19933;-96
2021/06/08 19:05:32;;;;;;;;;;;14.40;99.90;;;;;;5002893;28;20357;-96
2021/06/08 19:08:01;;;;;;;;;;;14.40;99.90;;;;;;4989688;28;19953;-95
2021/06/08 19:10:28;;;;;;;;;;;14.30;99.90;;;;;;4992802;28;19929;-96
2021/06/08 19:12:57;;;;;;;;;;;14.30;99.90;;;;;;4982938;28;20016;-96
2021/06/08 19:15:25;;;;;;;;;;;14.30;99.90;;;;;;4983066;28;19932;-96
2021/06/08 19:17:53;;;;;;;;;;;14.30;99.90;;;;;;4982847;28;19952;-95
2021/06/08 19:20:25;;;;;;;;;;;14.30;99.90;;;;;;4983306;28;20346;-94
2021/06/08 19:22:52;;;;;;;;;;;14.20;99.90;;;;;;4982484;28;19926;-95
2021/06/08 19:25:20;;;;;;;;;;;14.20;99.90;;;;;;4981860;28;19941;-96
2021/06/08 19:27:47;;;;;;;;;;;14.20;99.90;;;;;;4981927;28;20304;-95
2021/06/08 19:30:15;;;;;;;;;;;14.20;99.90;;;;;;4980509;28;19980;-95
2021/06/08 19:32:43;;;;;;;;;;;14.10;99.90;;;;;;4982297;28;19913;-94
2021/06/08 19:35:10;;;;;;;;;;;14.10;99.90;;;;;;4996551;28;20017;-96
2021/06/08 19:37:39;;;;;;;;;;;14.00;99.90;;;;;;4980539;28;20469;-95
2021/06/08 19:40:07;;;;;;;;;;;14.00;99.90;;;;;;4980889;28;19964;-94
2021/06/08 19:42:34;;;;;;;;;;;14.00;99.90;;;;;;4980492;28;19933;-95
2021/06/08 19:45:02;;;;;;;;;;;13.90;99.90;;;;;;4980579;28;19993;-96
2021/06/08 19:47:29;;;;;;;;;;;13.80;99.90;;;;;;4980714;28;20328;-95
2021/06/08 19:49:56;;;;;;;;;;;13.70;99.90;;;;;;4980594;28;20002;-95
2021/06/08 19:52:24;;;;;;;;;;;13.70;99.90;;;;;;4979791;28;19926;-95
2021/06/08 19:54:51;;;;;;;;;;;13.70;99.90;;;;;;4981144;28;19932;-96
2021/06/08 19:57:19;;;;;;;;;;;13.60;99.90;;;;;;4969111;28;19910;-96
2021/06/08 19:59:49;;;;;;;;;;;13.50;99.90;;;;;;5003187;28;19926;-95
2021/06/08 20:02:16;;;;;;;;;;;13.60;99.90;;;;;;4991682;28;19926;-96
2021/06/08 20:04:43;;;;;;;;;;;13.50;99.90;;;;;;4964410;28;19989;-95
2021/06/08 20:07:11;;;;;;;;;;;13.60;99.90;;;;;;4981512;28;20008;-95
2021/06/08 20:09:38;;;;;;;;;;;13.50;99.90;;;;;;4983105;28;19936;-95
2021/06/08 20:12:08;;;;;;;;;;;13.50;99.90;;;;;;4980754;28;20054;-96
2021/06/08 20:14:39;;;;;;;;;;;13.40;99.90;;;;;;4983031;28;19926;-95
2021/06/08 20:17:07;;;;;;;;;;;13.40;99.90;;;;;;4981701;28;19952;-96
2021/06/08 20:19:34;;;;;;;;;;;13.30;99.90;;;;;;4980337;28;20425;-95
2021/06/08 20:22:01;;;;;;;;;;;13.30;99.90;;;;;;4980644;28;19926;-93
2021/06/08 20:24:34;;;;;;;;;;;13.30;99.90;;;;;;4980924;28;20414;-96
2021/06/08 20:27:03;;;;;;;;;;;13.30;99.90;;;;;;4981779;28;19944;-96
2021/06/08 20:29:32;;;;;;;;;;;13.30;99.90;;;;;;4979864;28;20286;-95
2021/06/08 20:32:03;;;;;;;;;;;13.30;99.90;;;;;;4981252;28;19932;-95
2021/06/08 20:34:30;;;;;;;;;;;13.30;99.90;;;;;;4983527;28;20005;-96
2021/06/08 20:36:59;;;;;;;;;;;13.30;99.90;;;;;;4989884;28;19957;-95
2021/06/08 20:39:28;;;;;;;;;;;13.30;99.90;;;;;;4991323;28;19937;-96
2021/06/08 20:41:58;;;;;;;;;;;13.20;99.90;;;;;;4982124;28;19925;-96
2021/06/08 20:44:27;;;;;;;;;;;13.20;99.90;;;;;;4980307;28;19926;-95
2021/06/08 20:46:55;;;;;;;;;;;13.30;99.90;;;;;;4983169;28;19989;-96
2021/06/08 20:49:22;;;;;;;;;;;13.30;99.90;;;;;;4980524;28;20384;-96
2021/06/08 20:51:50;;;;;;;;;;;13.30;99.90;;;;;;4981159;28;19964;-96
2021/06/08 20:54:19;;;;;;;;;;;13.20;99.90;;;;;;4980887;28;19960;-94
2021/06/08 20:56:52;;;;;;;;;;;13.20;99.90;;;;;;4981327;28;19933;-96
2021/06/08 20:59:19;;;;;;;;;;;13.30;99.90;;;;;;4980497;28;19926;-95
2021/06/08 21:01:47;;;;;;;;;;;13.20;99.90;;;;;;4982656;28;19949;-95
2021/06/08 21:22:00;;;;;;;;;;;13.20;99.90;;;;;;5597259;22;19926;-96
2021/06/08 21:28:02;;;;;;;;;;;13.10;99.90;;;;;;5007815;28;19940;-96
2021/06/08 21:30:30;;;;;;;;;;;13.10;99.90;;;;;;5007126;28;19925;-96
2021/06/08 21:32:58;;;;;;;;;;;13.00;99.90;;;;;;4991859;28;20366;-96
2021/06/08 21:35:27;;;;;;;;;;;12.90;99.90;;;;;;4987458;28;19926;-96
2021/06/08 21:38:05;;;;;;;;;;;12.90;99.90;;;;;;4988403;28;19932;-96
2021/06/08 21:40:32;;;;;;;;;;;13.00;99.90;;;;;;4987450;28;19926;-96
2021/06/08 21:43:01;;;;;;;;;;;13.00;99.90;;;;;;5005368;28;19913;-96
2021/06/08 21:45:36;;;;;;;;;;;12.90;99.90;;;;;;5002373;28;19925;-96
2021/06/08 21:48:03;;;;;;;;;;;12.90;99.90;;;;;;4985600;28;19932;-95
2021/06/08 21:50:30;;;;;;;;;;;13.00;99.90;;;;;;4985992;28;19965;-96
2021/06/08 21:53:02;;;;;;;;;;;12.90;99.90;;;;;;4988475;28;20014;-96
2021/06/08 21:55:31;;;;;;;;;;;12.90;99.90;;;;;;4986405;28;19940;-96
2021/06/08 21:57:59;;;;;;;;;;;12.90;99.90;;;;;;4984463;28;20356;-96
2021/06/08 22:00:27;;;;;;;;;;;13.00;99.90;;;;;;4986955;28;19926;-96
2021/06/08 22:02:54;;;;;;;;;;;13.00;99.90;;;;;;4988667;28;19925;-96
2021/06/08 22:05:22;;;;;;;;;;;12.90;99.90;;;;;;4990908;28;19926;-96
2021/06/08 22:08:01;;;;;;;;;;;12.90;99.90;;;;;;4990438;28;20016;-95
2021/06/08 22:10:29;;;;;;;;;;;13.00;99.90;;;;;;4989486;28;20401;-96
2021/06/08 22:12:57;;;;;;;;;;;13.00;99.90;;;;;;4991435;28;19957;-96
2021/06/08 22:15:25;;;;;;;;;;;12.90;99.90;;;;;;4995060;28;19925;-96
2021/06/08 22:17:56;;;;;;;;;;;12.90;99.90;;;;;;4997013;28;20025;-96
2021/06/08 22:20:28;;;;;;;;;;;12.70;99.90;;;;;;5017866;28;19985;-96
2021/06/08 22:22:56;;;;;;;;;;;12.70;99.90;;;;;;5001856;28;19966;-96
2021/06/08 22:25:25;;;;;;;;;;;12.70;99.90;;;;;;5021380;28;19997;-96
2021/06/08 22:28:20;;;;;;;;;;;12.60;99.90;;;;;;5002798;28;19917;-95
2021/06/08 23:58:01;;;;;;;;;;;12.30;99.90;;;;;;5403300;22;20315;-94
